createdAt,value
2018-11-28T00:00:27.672Z,4.80
2018-11-28T00:02:56.281Z,4.70
2018-11-28T00:05:24.614Z,4.60
2018-11-28T00:07:52.960Z,4.50
2018-11-28T00:10:21.437Z,4.60
2018-11-28T00:12:50.544Z,4.60
2018-11-28T00:15:18.923Z,4.60
2018-11-28T00:17:47.394Z,4.50
2018-11-28T00:20:17.161Z,4.50
2018-11-28T00:22:45.780Z,4.60
2018-11-28T00:25:14.636Z,4.60
2018-11-28T00:27:43.097Z,4.60
2018-11-28T00:30:12.697Z,4.70
2018-11-28T00:32:41.123Z,4.60
2018-11-28T00:35:12.088Z,4.60
2018-11-28T00:37:40.473Z,4.60
2018-11-28T00:40:12.071Z,4.80
2018-11-28T00:42:41.006Z,4.90
2018-11-28T00:45:13.547Z,4.80
2018-11-28T00:47:41.941Z,4.70
2018-11-28T00:50:15.279Z,4.80
2018-11-28T00:52:43.666Z,4.70
2018-11-28T00:55:13.056Z,4.80
2018-11-28T00:57:41.434Z,4.80
2018-11-28T01:00:25.520Z,4.80
2018-11-28T01:02:54.806Z,4.80
2018-11-28T01:05:23.229Z,4.80
2018-11-28T01:07:56.842Z,4.70
2018-11-28T01:10:25.709Z,4.70
2018-11-28T01:12:54.791Z,4.80
2018-11-28T01:15:23.116Z,4.80
2018-11-28T01:17:51.480Z,4.60
2018-11-28T01:20:21.466Z,4.50
2018-11-28T01:22:49.842Z,4.50
2018-11-28T01:25:20.417Z,4.50
2018-11-28T01:27:48.881Z,4.50
2018-11-28T01:30:18.176Z,4.60
2018-11-28T01:32:46.641Z,4.60
2018-11-28T01:35:16.180Z,4.50
2018-11-28T01:37:44.641Z,4.40
2018-11-28T01:40:16.025Z,4.50
2018-11-28T01:42:44.402Z,4.60
2018-11-28T01:45:14.628Z,4.50
2018-11-28T01:47:43.068Z,4.50
2018-11-28T01:50:12.551Z,4.50
2018-11-28T01:52:40.925Z,4.30
2018-11-28T01:55:10.465Z,4.40
2018-11-28T01:57:38.942Z,4.30
2018-11-28T02:00:10.864Z,4.20
2018-11-28T02:02:39.244Z,4.10
2018-11-28T02:05:08.498Z,4.00
2018-11-28T02:07:36.959Z,4.00
2018-11-28T02:10:07.871Z,4.00
2018-11-28T02:12:36.232Z,4.00
2018-11-28T02:15:04.848Z,4.00
2018-11-28T02:17:33.217Z,4.00
2018-11-28T02:20:01.661Z,3.90
2018-11-28T02:22:30.025Z,4.00
2018-11-28T02:24:58.422Z,4.00
2018-11-28T02:27:26.819Z,4.00
2018-11-28T02:29:55.179Z,4.00
2018-11-28T02:32:23.545Z,3.90
2018-11-28T02:34:51.893Z,3.90
2018-11-28T02:37:20.231Z,3.90
2018-11-28T02:39:48.611Z,3.80
2018-11-28T02:42:16.924Z,3.90
2018-11-28T02:44:45.292Z,3.90
2018-11-28T02:47:13.641Z,3.90
2018-11-28T02:49:42.088Z,4.00
2018-11-28T02:52:10.481Z,3.90
2018-11-28T02:54:38.822Z,3.80
2018-11-28T02:57:07.174Z,3.90
2018-11-28T02:59:35.569Z,3.60
2018-11-28T03:02:03.951Z,3.50
2018-11-28T03:04:32.356Z,3.60
2018-11-28T03:07:01.369Z,3.50
2018-11-28T03:09:29.806Z,3.50
2018-11-28T03:11:58.161Z,3.50
2018-11-28T03:14:26.585Z,3.40
2018-11-28T03:16:54.951Z,3.50
2018-11-28T03:19:23.305Z,3.40
2018-11-28T03:21:51.651Z,3.40
2018-11-28T03:24:20.005Z,3.50
2018-11-28T03:26:54.717Z,3.60
2018-11-28T03:29:23.074Z,3.50
2018-11-28T03:31:51.461Z,3.60
2018-11-28T03:34:19.847Z,3.60
2018-11-28T03:36:48.295Z,3.70
2018-11-28T03:39:16.633Z,3.70
2018-11-28T03:41:44.996Z,3.70
2018-11-28T03:44:13.361Z,3.70
2018-11-28T03:46:41.749Z,3.60
2018-11-28T03:49:10.106Z,3.70
2018-11-28T03:51:38.441Z,3.60
2018-11-28T03:54:06.875Z,3.70
2018-11-28T03:56:35.248Z,3.60
2018-11-28T03:59:03.690Z,3.50
2018-11-28T04:01:32.058Z,3.40
2018-11-28T04:04:00.456Z,3.40
2018-11-28T04:06:28.884Z,3.50
2018-11-28T04:08:57.278Z,3.60
2018-11-28T04:11:25.673Z,3.60
2018-11-28T04:13:54.056Z,3.60
2018-11-28T04:16:22.434Z,3.60
2018-11-28T04:18:50.864Z,3.50
2018-11-28T04:21:19.256Z,3.60
2018-11-28T04:23:47.618Z,3.50
2018-11-28T04:26:16.045Z,3.40
2018-11-28T04:28:44.377Z,3.40
2018-11-28T04:31:12.775Z,3.40
2018-11-28T04:33:41.178Z,3.30
2018-11-28T04:36:09.512Z,3.30
2018-11-28T04:38:37.868Z,3.30
2018-11-28T04:41:06.225Z,3.30
2018-11-28T04:43:34.610Z,3.30
2018-11-28T04:46:02.983Z,3.40
2018-11-28T04:48:31.413Z,3.20
2018-11-28T04:50:59.720Z,3.30
2018-11-28T04:53:28.105Z,3.20
2018-11-28T04:55:56.462Z,3.30
2018-11-28T04:58:24.832Z,3.40
2018-11-28T05:00:53.198Z,3.40
2018-11-28T05:03:21.587Z,3.40
2018-11-28T05:05:49.929Z,3.40
2018-11-28T05:08:18.260Z,3.40
2018-11-28T05:10:46.690Z,3.30
2018-11-28T05:13:15.034Z,3.30
2018-11-28T05:15:43.445Z,3.30
2018-11-28T05:18:12.569Z,3.20
2018-11-28T05:20:40.920Z,3.30
2018-11-28T05:23:09.508Z,3.30
2018-11-28T05:25:37.949Z,3.40
2018-11-28T05:28:06.419Z,3.30
2018-11-28T05:30:35.684Z,3.30
2018-11-28T05:33:03.132Z,3.30
2018-11-28T05:35:37.569Z,3.30
2018-11-28T05:38:13.058Z,3.30
2018-11-28T05:40:42.622Z,3.30
2018-11-28T05:43:11.068Z,3.40
2018-11-28T05:45:39.393Z,3.30
2018-11-28T05:48:07.713Z,3.30
2018-11-28T05:50:36.079Z,3.30
2018-11-28T05:53:04.424Z,3.30
2018-11-28T05:55:32.814Z,3.30
2018-11-28T05:58:01.161Z,3.20
2018-11-28T06:00:41.982Z,3.20
2018-11-28T06:03:11.404Z,3.20
2018-11-28T06:05:41.023Z,3.30
2018-11-28T06:08:09.441Z,3.40
2018-11-28T06:10:37.809Z,3.30
2018-11-28T06:13:06.439Z,3.40
2018-11-28T06:15:34.794Z,3.40
2018-11-28T06:18:03.146Z,3.30
2018-11-28T06:20:31.496Z,3.20
2018-11-28T06:22:59.869Z,3.20
2018-11-28T06:25:28.293Z,3.30
2018-11-28T06:27:56.684Z,3.30
2018-11-28T06:30:25.084Z,3.30
2018-11-28T06:32:53.524Z,3.40
2018-11-28T06:35:21.943Z,3.50
2018-11-28T06:37:50.308Z,3.60
2018-11-28T06:40:24.034Z,3.60
2018-11-28T06:42:47.908Z,3.60
2018-11-28T06:45:18.769Z,3.60
2018-11-28T06:47:47.128Z,3.60
2018-11-28T06:50:16.989Z,3.40
2018-11-28T06:52:46.396Z,3.50
2018-11-28T06:55:16.148Z,3.50
2018-11-28T06:57:44.584Z,3.40
2018-11-28T07:00:17.096Z,3.50
2018-11-28T07:02:45.785Z,3.40
2018-11-28T07:05:14.282Z,3.20
2018-11-28T07:07:42.628Z,3.00
2018-11-28T07:10:12.593Z,2.90
2018-11-28T07:12:40.996Z,3.00
2018-11-28T07:15:12.515Z,3.00
2018-11-28T07:17:41.699Z,3.00
2018-11-28T07:20:12.244Z,3.10
2018-11-28T07:22:40.676Z,3.10
2018-11-28T07:25:11.838Z,3.10
2018-11-28T07:27:45.045Z,3.10
2018-11-28T07:30:19.363Z,3.00
2018-11-28T07:32:48.541Z,3.00
2018-11-28T07:35:16.900Z,3.00
2018-11-28T07:37:45.288Z,3.00
2018-11-28T07:40:19.018Z,3.00
2018-11-28T07:43:01.917Z,3.20
2018-11-28T07:45:30.281Z,3.30
2018-11-28T07:47:58.695Z,3.20
2018-11-28T07:50:27.037Z,3.20
2018-11-28T07:52:55.413Z,3.30
2018-11-28T07:55:23.752Z,3.10
2018-11-28T07:57:52.169Z,3.30
2018-11-28T08:00:20.566Z,3.50
2018-11-28T08:02:48.958Z,3.30
2018-11-28T08:05:17.322Z,3.40
2018-11-28T08:07:45.674Z,3.40
2018-11-28T08:10:21.580Z,3.40
2018-11-28T08:12:51.003Z,3.50
2018-11-28T08:15:19.398Z,3.50
2018-11-28T08:17:47.797Z,3.50
2018-11-28T08:20:16.164Z,3.60
2018-11-28T08:22:44.533Z,3.70
2018-11-28T08:25:13.819Z,3.80
2018-11-28T08:27:42.979Z,3.80
2018-11-28T08:30:15.668Z,3.90
2018-11-28T08:32:44.085Z,3.90
2018-11-28T08:35:13.010Z,4.20
2018-11-28T08:37:41.429Z,4.20
2018-11-28T08:40:14.940Z,4.00
2018-11-28T08:42:43.323Z,4.00
2018-11-28T08:45:14.037Z,4.00
2018-11-28T08:47:42.589Z,4.00
2018-11-28T08:50:19.289Z,3.80
2018-11-28T08:52:47.665Z,3.90
2018-11-28T08:55:16.065Z,4.00
2018-11-28T08:57:44.443Z,4.10
2018-11-28T09:00:15.972Z,4.00
2018-11-28T09:02:45.152Z,3.80
2018-11-28T09:05:14.074Z,3.80
2018-11-28T09:07:42.461Z,3.80
2018-11-28T09:10:15.099Z,3.80
2018-11-28T09:12:43.916Z,3.90
2018-11-28T09:15:13.756Z,3.90
2018-11-28T09:17:42.137Z,3.90
2018-11-28T09:20:11.993Z,4.00
2018-11-28T09:22:40.373Z,4.00
2018-11-28T09:25:10.954Z,4.00
2018-11-28T09:27:39.337Z,4.20
2018-11-28T09:30:17.010Z,4.10
2018-11-28T09:32:45.550Z,4.00
2018-11-28T09:35:14.507Z,4.30
2018-11-28T09:37:45.580Z,4.30
2018-11-28T09:40:16.639Z,4.30
2018-11-28T09:42:44.992Z,4.50
2018-11-28T09:45:14.420Z,4.60
2018-11-28T09:47:42.852Z,4.60
2018-11-28T09:50:14.166Z,4.50
2018-11-28T09:52:42.678Z,4.70
2018-11-28T09:55:17.171Z,4.60
2018-11-28T09:57:45.534Z,4.80
2018-11-28T10:00:16.116Z,5.10
2018-11-28T10:02:44.498Z,5.20
2018-11-28T10:05:22.714Z,5.30
2018-11-28T10:07:51.154Z,5.30
2018-11-28T10:10:19.550Z,5.50
2018-11-28T10:12:47.906Z,5.50
2018-11-28T10:15:20.187Z,5.60
2018-11-28T10:17:48.627Z,5.70
2018-11-28T10:20:17.651Z,5.60
2018-11-28T10:22:46.509Z,5.60
2018-11-28T10:25:16.112Z,5.80
2018-11-28T10:27:46.695Z,5.90
2018-11-28T10:30:18.299Z,6.10
2018-11-28T10:32:47.151Z,6.30
2018-11-28T10:35:15.538Z,6.40
2018-11-28T10:37:43.979Z,6.50
2018-11-28T10:40:14.859Z,6.40
2018-11-28T10:42:43.277Z,6.60
2018-11-28T10:45:13.080Z,6.40
2018-11-28T10:47:42.107Z,6.80
2018-11-28T10:50:13.522Z,7.20
2018-11-28T10:52:42.077Z,6.90
2018-11-28T10:55:12.859Z,6.50
2018-11-28T10:57:41.263Z,6.30
2018-11-28T11:00:23.875Z,6.20
2018-11-28T11:02:57.481Z,6.30
2018-11-28T11:05:31.406Z,6.50
2018-11-28T11:09:07.832Z,6.40
2018-11-28T11:11:41.291Z,6.20
2018-11-28T11:15:15.670Z,6.50
2018-11-28T11:17:44.045Z,6.80
2018-11-28T11:20:12.469Z,6.90
2018-11-28T11:22:40.904Z,6.30
2018-11-28T11:25:09.282Z,6.20
2018-11-28T11:27:37.663Z,6.50
2018-11-28T11:30:08.957Z,6.70
2018-11-28T11:32:37.329Z,7.10
2018-11-28T11:35:07.908Z,7.00
2018-11-28T11:37:36.271Z,7.20
2018-11-28T11:40:07.207Z,6.70
2018-11-28T11:42:35.494Z,6.90
2018-11-28T11:45:03.934Z,7.40
2018-11-28T11:47:32.326Z,8.00
2018-11-28T11:50:00.664Z,8.30
2018-11-28T11:52:29.006Z,8.00
2018-11-28T11:54:57.396Z,8.30
2018-11-28T11:57:25.792Z,8.60
2018-11-28T11:59:54.181Z,8.50
2018-11-28T12:02:22.532Z,7.90
2018-11-28T12:04:50.856Z,7.70
2018-11-28T12:07:19.239Z,7.90
2018-11-28T12:09:47.598Z,8.00
2018-11-28T12:12:16.008Z,7.90
2018-11-28T12:14:44.388Z,7.80
2018-11-28T12:17:12.798Z,7.50
2018-11-28T12:19:41.182Z,7.60
2018-11-28T12:22:09.609Z,7.80
2018-11-28T12:24:37.958Z,8.20
2018-11-28T12:27:06.489Z,7.70
2018-11-28T12:29:34.876Z,7.30
2018-11-28T12:32:03.372Z,7.40
2018-11-28T12:34:31.743Z,7.40
2018-11-28T12:37:00.108Z,7.50
2018-11-28T12:39:28.497Z,7.10
2018-11-28T12:41:56.814Z,6.90
2018-11-28T12:44:25.908Z,6.80
2018-11-28T12:46:54.305Z,6.90
2018-11-28T12:49:22.650Z,7.10
2018-11-28T12:51:51.016Z,6.90
2018-11-28T12:54:19.437Z,6.90
2018-11-28T12:56:47.764Z,7.00
2018-11-28T12:59:16.144Z,6.90
2018-11-28T13:01:44.496Z,6.80
2018-11-28T13:04:12.874Z,6.90
2018-11-28T13:06:41.224Z,7.10
2018-11-28T13:09:09.648Z,7.20
2018-11-28T13:11:38.051Z,6.80
2018-11-28T13:14:06.796Z,6.80
2018-11-28T13:16:35.192Z,6.70
2018-11-28T13:19:03.588Z,6.80
2018-11-28T13:21:32.017Z,6.90
2018-11-28T13:24:00.395Z,7.00
2018-11-28T13:26:28.772Z,7.10
2018-11-28T13:28:57.157Z,7.00
2018-11-28T13:31:25.475Z,6.90
2018-11-28T13:33:53.829Z,6.90
2018-11-28T13:36:22.728Z,6.80
2018-11-28T13:38:50.638Z,6.80
2018-11-28T13:41:18.989Z,6.60
2018-11-28T13:43:47.324Z,6.70
2018-11-28T13:46:15.717Z,6.60
2018-11-28T13:48:44.053Z,6.60
2018-11-28T13:51:12.436Z,6.40
2018-11-28T13:53:40.788Z,6.50
2018-11-28T13:58:37.543Z,6.40
2018-11-28T14:01:06.264Z,6.40
2018-11-28T14:03:34.605Z,6.50
2018-11-28T14:06:02.976Z,6.50
2018-11-28T14:08:31.406Z,6.50
2018-11-28T14:10:59.754Z,6.50
2018-11-28T14:13:28.212Z,6.50
2018-11-28T14:15:56.614Z,6.40
2018-11-28T14:18:24.992Z,6.40
2018-11-28T14:20:53.354Z,6.30
2018-11-28T14:23:21.659Z,6.30
2018-11-28T14:25:50.272Z,6.20
2018-11-28T14:28:18.642Z,6.40
2018-11-28T14:30:48.751Z,6.50
2018-11-28T14:33:17.223Z,6.50
2018-11-28T14:35:45.613Z,6.50
2018-11-28T14:38:14.002Z,6.50
2018-11-28T14:40:42.345Z,6.40
2018-11-28T14:43:10.705Z,6.40
2018-11-28T14:45:39.072Z,6.50
2018-11-28T14:48:07.453Z,6.30
2018-11-28T14:50:35.856Z,6.30
2018-11-28T14:53:04.324Z,6.40
2018-11-28T14:55:36.668Z,6.30
2018-11-28T14:58:05.535Z,6.20
2018-11-28T15:00:34.016Z,6.30
2018-11-28T15:03:15.682Z,6.30
2018-11-28T15:06:00.302Z,6.20
2018-11-28T15:08:29.163Z,6.10
2018-11-28T15:11:08.412Z,6.10
2018-11-28T15:13:36.844Z,6.10
2018-11-28T15:16:05.396Z,6.00
2018-11-28T15:18:33.800Z,6.10
2018-11-28T15:21:02.165Z,6.10
2018-11-28T15:23:30.544Z,6.10
2018-11-28T15:25:58.984Z,6.10
2018-11-28T15:28:27.372Z,6.10
2018-11-28T15:30:55.773Z,6.10
2018-11-28T15:33:24.342Z,6.10
2018-11-28T15:35:52.693Z,6.10
2018-11-28T15:38:21.049Z,6.20
2018-11-28T15:40:49.642Z,6.10
2018-11-28T15:43:18.024Z,6.10
2018-11-28T15:45:46.405Z,6.10
2018-11-28T15:48:14.712Z,6.10
2018-11-28T15:50:43.195Z,6.10
2018-11-28T15:53:11.509Z,6.00
2018-11-28T15:55:40.036Z,6.10
2018-11-28T15:58:08.381Z,6.20
2018-11-28T16:00:36.865Z,6.20
2018-11-28T16:03:05.698Z,6.10
2018-11-28T16:05:34.294Z,6.10
2018-11-28T16:08:02.696Z,6.10
2018-11-28T16:10:36.202Z,6.10
2018-11-28T16:13:04.894Z,6.10
2018-11-28T16:15:36.173Z,6.10
2018-11-28T16:18:04.709Z,6.00
2018-11-28T16:20:33.140Z,6.10
2018-11-28T16:23:04.402Z,6.00
2018-11-28T16:25:29.968Z,6.10
2018-11-28T16:27:59.129Z,6.00
2018-11-28T16:30:27.512Z,6.10
2018-11-28T16:32:55.859Z,6.10
2018-11-28T16:35:24.187Z,6.10
2018-11-28T16:37:52.567Z,6.00
2018-11-28T16:40:20.977Z,6.00
2018-11-28T16:42:49.366Z,6.10
2018-11-28T16:45:19.698Z,6.10
2018-11-28T16:47:48.497Z,6.10
2018-11-28T16:50:17.503Z,6.20
2018-11-28T16:52:46.245Z,6.10
2018-11-28T16:55:15.664Z,6.00
2018-11-28T16:57:46.276Z,6.00
2018-11-28T17:00:18.824Z,6.00
2018-11-28T17:02:47.203Z,6.00
2018-11-28T17:05:16.748Z,6.00
2018-11-28T17:07:45.164Z,5.90
2018-11-28T17:10:14.836Z,6.00
2018-11-28T17:12:43.491Z,6.00
2018-11-28T17:15:13.816Z,6.00
2018-11-28T17:17:42.219Z,6.00
2018-11-28T17:20:14.901Z,6.00
2018-11-28T17:22:43.453Z,6.00
2018-11-28T17:25:15.022Z,6.00
2018-11-28T17:27:43.345Z,6.20
2018-11-28T17:30:18.833Z,6.10
2018-11-28T17:32:44.020Z,6.10
2018-11-28T17:35:13.359Z,6.00
2018-11-28T17:37:41.753Z,6.00
2018-11-28T17:40:16.510Z,5.90
2018-11-28T17:42:46.137Z,6.00
2018-11-28T17:45:15.620Z,6.00
2018-11-28T17:47:44.049Z,6.10
2018-11-28T17:50:23.999Z,6.10
2018-11-28T17:53:01.774Z,6.00
2018-11-28T17:55:33.530Z,6.00
2018-11-28T17:58:01.906Z,6.00
2018-11-28T18:00:30.330Z,6.10
2018-11-28T18:02:58.694Z,6.10
2018-11-28T18:05:27.177Z,6.20
2018-11-28T18:07:55.516Z,6.10
2018-11-28T18:10:23.872Z,6.10
2018-11-28T18:13:06.288Z,6.10
2018-11-28T18:15:34.702Z,6.00
2018-11-28T18:18:03.303Z,6.10
2018-11-28T18:20:31.657Z,6.00
2018-11-28T18:23:00.048Z,6.00
2018-11-28T18:25:29.928Z,6.00
2018-11-28T18:27:58.277Z,6.00
2018-11-28T18:30:27.269Z,6.00
2018-11-28T18:32:55.635Z,6.00
2018-11-28T18:35:24.065Z,6.00
2018-11-28T18:37:52.457Z,6.00
2018-11-28T18:40:20.880Z,6.10
2018-11-28T18:42:49.250Z,6.10
2018-11-28T18:45:21.286Z,6.10
2018-11-28T18:47:49.662Z,6.20
2018-11-28T18:50:18.065Z,6.20
2018-11-28T18:52:46.453Z,6.20
2018-11-28T18:55:19.249Z,6.20
2018-11-28T18:57:48.951Z,6.20
2018-11-28T19:00:20.301Z,6.20
2018-11-28T19:02:48.671Z,6.10
2018-11-28T19:05:17.070Z,6.00
2018-11-28T19:07:45.528Z,6.00
2018-11-28T19:10:19.380Z,6.10
2018-11-28T19:12:47.837Z,6.20
2018-11-28T19:15:17.258Z,6.20
2018-11-28T19:17:46.216Z,6.10
2018-11-28T19:20:16.336Z,6.20
2018-11-28T19:22:45.459Z,6.20
2018-11-28T19:25:16.817Z,6.10
2018-11-28T19:27:45.691Z,6.10
2018-11-28T19:30:16.257Z,5.90
2018-11-28T19:32:44.709Z,5.90
2018-11-28T19:35:13.152Z,5.90
2018-11-28T19:37:42.231Z,5.90
2018-11-28T19:40:13.166Z,5.90
2018-11-28T19:42:41.601Z,6.00
2018-11-28T19:45:09.962Z,6.00
2018-11-28T19:47:38.337Z,6.00
2018-11-28T19:50:16.482Z,5.80
2018-11-28T19:52:44.994Z,5.80
2018-11-28T19:55:13.349Z,5.80
2018-11-28T19:57:41.801Z,5.80
2018-11-28T20:00:12.215Z,5.80
2018-11-28T20:02:40.603Z,5.90
2018-11-28T20:05:09.071Z,5.80
2018-11-28T20:07:37.452Z,5.90
2018-11-28T20:10:09.126Z,5.90
2018-11-28T20:12:37.796Z,5.90
2018-11-28T20:15:09.846Z,5.90
2018-11-28T20:17:38.241Z,5.90
2018-11-28T20:20:09.173Z,5.70
2018-11-28T20:22:37.594Z,5.60
2018-11-28T20:25:08.234Z,5.50
2018-11-28T20:27:36.565Z,5.50
2018-11-28T20:30:14.316Z,5.40
2018-11-28T20:32:42.740Z,5.40
2018-11-28T20:35:11.491Z,5.50
2018-11-28T20:37:40.469Z,5.40
2018-11-28T20:40:11.377Z,5.40
2018-11-28T20:42:40.383Z,5.40
2018-11-28T20:45:10.143Z,5.40
2018-11-28T20:47:38.518Z,5.20
2018-11-28T20:50:10.348Z,5.20
2018-11-28T20:52:38.942Z,5.20
2018-11-28T20:55:08.840Z,5.30
2018-11-28T20:57:37.198Z,5.20
2018-11-28T21:00:10.605Z,5.30
2018-11-28T21:02:38.985Z,5.10
2018-11-28T21:05:07.442Z,5.20
2018-11-28T21:07:35.796Z,5.20
2018-11-28T21:10:09.817Z,5.10
2018-11-28T21:12:38.193Z,5.00
2018-11-28T21:15:06.925Z,5.00
2018-11-28T21:17:35.289Z,5.00
2018-11-28T21:20:04.075Z,4.80
2018-11-28T21:22:32.447Z,4.90
2018-11-28T21:25:00.848Z,4.90
2018-11-28T21:27:29.507Z,4.80
2018-11-28T21:29:57.653Z,4.90
2018-11-28T21:32:26.030Z,4.90
2018-11-28T21:34:54.444Z,4.70
2018-11-28T21:37:22.877Z,4.50
2018-11-28T21:39:56.423Z,4.40
2018-11-28T21:42:25.078Z,4.60
2018-11-28T21:44:53.537Z,4.50
2018-11-28T21:47:22.593Z,4.50
2018-11-28T21:49:51.009Z,4.50
2018-11-28T21:52:19.413Z,4.50
2018-11-28T21:54:47.764Z,4.50
2018-11-28T21:57:16.120Z,4.40
2018-11-28T21:59:44.531Z,4.20
2018-11-28T22:02:12.946Z,4.30
2018-11-28T22:04:41.281Z,4.30
2018-11-28T22:07:09.686Z,4.20
2018-11-28T22:09:38.110Z,4.30
2018-11-28T22:12:06.590Z,4.30
2018-11-28T22:14:34.987Z,4.40
2018-11-28T22:17:03.358Z,4.10
2018-11-28T22:19:31.732Z,4.10
2018-11-28T22:22:00.105Z,4.00
2018-11-28T22:24:28.513Z,4.10
2018-11-28T22:26:56.952Z,4.10
2018-11-28T22:29:25.401Z,4.20
2018-11-28T22:31:53.756Z,4.10
2018-11-28T22:34:22.145Z,4.20
2018-11-28T22:36:50.617Z,4.00
2018-11-28T22:39:19.077Z,4.00
2018-11-28T22:41:47.436Z,4.00
2018-11-28T22:44:15.844Z,3.80
2018-11-28T22:46:44.188Z,3.70
2018-11-28T22:49:12.576Z,3.70
2018-11-28T22:51:40.945Z,3.70
2018-11-28T22:54:09.372Z,3.90
2018-11-28T22:56:37.735Z,3.80
2018-11-28T22:59:06.330Z,3.80
2018-11-28T23:01:44.764Z,3.80
2018-11-28T23:04:13.134Z,3.80
2018-11-28T23:06:41.519Z,3.80
2018-11-28T23:09:09.892Z,3.80
2018-11-28T23:11:38.282Z,3.70
2018-11-28T23:14:06.655Z,3.60
2018-11-28T23:16:35.068Z,3.60
2018-11-28T23:19:03.436Z,3.60
2018-11-28T23:21:31.798Z,3.60
2018-11-28T23:24:04.874Z,3.60
2018-11-28T23:26:33.196Z,3.70
2018-11-28T23:29:02.318Z,3.70
2018-11-28T23:31:30.648Z,3.70
2018-11-28T23:33:59.012Z,3.70
2018-11-28T23:36:27.345Z,3.70
2018-11-28T23:38:55.705Z,3.70
2018-11-28T23:41:24.040Z,3.60
2018-11-28T23:43:52.446Z,3.60
2018-11-28T23:46:20.801Z,3.70
2018-11-28T23:48:49.356Z,3.60
2018-11-28T23:51:17.791Z,3.70
2018-11-28T23:53:46.213Z,3.60
2018-11-28T23:56:14.609Z,3.50
2018-11-28T23:58:42.985Z,3.50
